sensor_id;sensor_type;location;lat;lon;timestamp;P1;durP1;ratioP1;P2;durP2;ratioP2
10947;SDS011;5526;42.070;24.752;2022-09-09T00:00:53;6.85;;;6.25;;
10947;SDS011;5526;42.070;24.752;2022-09-09T00:03:30;8.07;;;6.50;;
10947;SDS011;5526;42.070;24.752;2022-09-09T00:06:07;7.43;;;6.82;;
10947;SDS011;5526;42.070;24.752;2022-09-09T00:08:41;7.75;;;7.05;;
10947;SDS011;5526;42.070;24.752;2022-09-09T00:11:28;8.13;;;7.50;;
10947;SDS011;5526;42.070;24.752;2022-09-09T00:14:03;8.63;;;7.63;;
10947;SDS011;5526;42.070;24.752;2022-09-09T00:16:38;7.68;;;7.07;;
10947;SDS011;5526;42.070;24.752;2022-09-09T00:19:15;8.70;;;7.90;;
10947;SDS011;5526;42.070;24.752;2022-09-09T00:21:51;9.90;;;8.13;;
10947;SDS011;5526;42.070;24.752;2022-09-09T00:24:27;9.27;;;8.57;;
10947;SDS011;5526;42.070;24.752;2022-09-09T00:27:01;7.80;;;7.10;;
10947;SDS011;5526;42.070;24.752;2022-09-09T00:29:35;7.70;;;7.00;;
10947;SDS011;5526;42.070;24.752;2022-09-09T00:32:11;7.22;;;6.60;;
10947;SDS011;5526;42.070;24.752;2022-09-09T00:34:48;6.63;;;6.03;;
10947;SDS011;5526;42.070;24.752;2022-09-09T00:37:18;6.30;;;5.75;;
10947;SDS011;5526;42.070;24.752;2022-09-09T00:39:47;6.18;;;5.60;;
10947;SDS011;5526;42.070;24.752;2022-09-09T00:42:18;6.20;;;5.70;;
10947;SDS011;5526;42.070;24.752;2022-09-09T00:44:51;6.65;;;6.15;;
10947;SDS011;5526;42.070;24.752;2022-09-09T00:47:30;7.05;;;6.45;;
10947;SDS011;5526;42.070;24.752;2022-09-09T00:50:15;7.65;;;6.35;;
10947;SDS011;5526;42.070;24.752;2022-09-09T00:52:54;7.97;;;7.00;;
10947;SDS011;5526;42.070;24.752;2022-09-09T00:55:33;8.57;;;6.80;;
10947;SDS011;5526;42.070;24.752;2022-09-09T00:58:08;8.95;;;7.40;;
10947;SDS011;5526;42.070;24.752;2022-09-09T01:00:38;8.30;;;7.45;;
10947;SDS011;5526;42.070;24.752;2022-09-09T01:06:11;8.95;;;8.25;;
10947;SDS011;5526;42.070;24.752;2022-09-09T01:08:42;9.30;;;8.52;;
10947;SDS011;5526;42.070;24.752;2022-09-09T01:11:31;9.73;;;8.82;;
10947;SDS011;5526;42.070;24.752;2022-09-09T01:14:13;9.35;;;8.55;;
10947;SDS011;5526;42.070;24.752;2022-09-09T01:16:45;9.57;;;8.70;;
10947;SDS011;5526;42.070;24.752;2022-09-09T01:19:17;9.88;;;9.07;;
10947;SDS011;5526;42.070;24.752;2022-09-09T01:21:54;10.68;;;9.68;;
10947;SDS011;5526;42.070;24.752;2022-09-09T01:24:31;10.43;;;9.27;;
10947;SDS011;5526;42.070;24.752;2022-09-09T01:27:06;10.98;;;9.98;;
10947;SDS011;5526;42.070;24.752;2022-09-09T01:29:35;11.55;;;10.40;;
10947;SDS011;5526;42.070;24.752;2022-09-09T01:32:35;10.73;;;9.73;;
10947;SDS011;5526;42.070;24.752;2022-09-09T01:35:07;12.60;;;10.40;;
10947;SDS011;5526;42.070;24.752;2022-09-09T01:37:39;11.32;;;10.45;;
10947;SDS011;5526;42.070;24.752;2022-09-09T01:40:07;11.20;;;10.30;;
10947;SDS011;5526;42.070;24.752;2022-09-09T01:42:36;12.07;;;10.85;;
10947;SDS011;5526;42.070;24.752;2022-09-09T01:45:04;11.98;;;10.85;;
10947;SDS011;5526;42.070;24.752;2022-09-09T01:47:32;12.18;;;11.07;;
10947;SDS011;5526;42.070;24.752;2022-09-09T01:49:59;12.57;;;11.52;;
10947;SDS011;5526;42.070;24.752;2022-09-09T01:52:27;11.27;;;10.25;;
10947;SDS011;5526;42.070;24.752;2022-09-09T01:54:54;12.65;;;11.30;;
10947;SDS011;5526;42.070;24.752;2022-09-09T01:57:23;11.63;;;10.73;;
10947;SDS011;5526;42.070;24.752;2022-09-09T02:00:00;10.80;;;9.90;;
10947;SDS011;5526;42.070;24.752;2022-09-09T02:02:32;10.75;;;9.70;;
10947;SDS011;5526;42.070;24.752;2022-09-09T02:05:06;10.05;;;9.18;;
10947;SDS011;5526;42.070;24.752;2022-09-09T02:07:43;8.52;;;7.88;;
10947;SDS011;5526;42.070;24.752;2022-09-09T02:10:15;9.20;;;8.40;;
10947;SDS011;5526;42.070;24.752;2022-09-09T02:12:47;9.82;;;9.00;;
10947;SDS011;5526;42.070;24.752;2022-09-09T02:15:22;9.18;;;8.38;;
10947;SDS011;5526;42.070;24.752;2022-09-09T02:17:54;12.20;;;11.05;;
10947;SDS011;5526;42.070;24.752;2022-09-09T02:20:24;10.23;;;9.43;;
10947;SDS011;5526;42.070;24.752;2022-09-09T02:22:54;11.10;;;10.20;;
10947;SDS011;5526;42.070;24.752;2022-09-09T02:25:24;10.55;;;9.75;;
10947;SDS011;5526;42.070;24.752;2022-09-09T02:27:54;11.02;;;10.05;;
10947;SDS011;5526;42.070;24.752;2022-09-09T02:30:24;9.63;;;8.73;;
10947;SDS011;5526;42.070;24.752;2022-09-09T02:32:55;9.30;;;8.70;;
10947;SDS011;5526;42.070;24.752;2022-09-09T02:35:25;9.75;;;8.77;;
10947;SDS011;5526;42.070;24.752;2022-09-09T02:37:54;8.48;;;7.68;;
10947;SDS011;5526;42.070;24.752;2022-09-09T02:40:25;8.90;;;8.10;;
10947;SDS011;5526;42.070;24.752;2022-09-09T02:42:53;8.50;;;7.90;;
10947;SDS011;5526;42.070;24.752;2022-09-09T02:45:22;8.98;;;7.28;;
10947;SDS011;5526;42.070;24.752;2022-09-09T02:47:55;7.70;;;7.00;;
10947;SDS011;5526;42.070;24.752;2022-09-09T02:50:31;7.45;;;6.85;;
10947;SDS011;5526;42.070;24.752;2022-09-09T02:53:03;8.10;;;7.40;;
10947;SDS011;5526;42.070;24.752;2022-09-09T02:55:39;8.80;;;7.85;;
10947;SDS011;5526;42.070;24.752;2022-09-09T02:58:08;8.63;;;8.02;;
10947;SDS011;5526;42.070;24.752;2022-09-09T03:00:39;9.27;;;8.48;;
10947;SDS011;5526;42.070;24.752;2022-09-09T03:03:07;10.90;;;10.00;;
10947;SDS011;5526;42.070;24.752;2022-09-09T03:05:35;10.38;;;9.45;;
10947;SDS011;5526;42.070;24.752;2022-09-09T03:08:02;11.13;;;10.15;;
10947;SDS011;5526;42.070;24.752;2022-09-09T03:10:30;10.63;;;9.77;;
10947;SDS011;5526;42.070;24.752;2022-09-09T03:12:58;10.90;;;9.98;;
10947;SDS011;5526;42.070;24.752;2022-09-09T03:15:25;10.38;;;9.57;;
10947;SDS011;5526;42.070;24.752;2022-09-09T03:17:55;10.23;;;9.43;;
10947;SDS011;5526;42.070;24.752;2022-09-09T03:20:23;10.75;;;9.85;;
10947;SDS011;5526;42.070;24.752;2022-09-09T03:22:51;10.82;;;9.93;;
10947;SDS011;5526;42.070;24.752;2022-09-09T03:25:18;10.57;;;9.77;;
10947;SDS011;5526;42.070;24.752;2022-09-09T03:27:45;10.32;;;9.43;;
10947;SDS011;5526;42.070;24.752;2022-09-09T03:30:13;10.15;;;9.15;;
10947;SDS011;5526;42.070;24.752;2022-09-09T03:32:40;11.00;;;9.85;;
10947;SDS011;5526;42.070;24.752;2022-09-09T03:35:09;10.43;;;9.60;;
10947;SDS011;5526;42.070;24.752;2022-09-09T03:37:36;11.48;;;10.27;;
10947;SDS011;5526;42.070;24.752;2022-09-09T03:40:04;13.98;;;10.32;;
10947;SDS011;5526;42.070;24.752;2022-09-09T03:42:32;11.55;;;10.70;;
10947;SDS011;5526;42.070;24.752;2022-09-09T03:45:00;12.00;;;10.90;;
10947;SDS011;5526;42.070;24.752;2022-09-09T03:47:27;11.55;;;10.65;;
10947;SDS011;5526;42.070;24.752;2022-09-09T03:49:55;10.35;;;9.55;;
10947;SDS011;5526;42.070;24.752;2022-09-09T03:52:23;10.50;;;9.55;;
10947;SDS011;5526;42.070;24.752;2022-09-09T03:54:51;11.60;;;10.60;;
10947;SDS011;5526;42.070;24.752;2022-09-09T03:57:19;11.63;;;10.63;;
10947;SDS011;5526;42.070;24.752;2022-09-09T03:59:46;11.48;;;10.57;;
10947;SDS011;5526;42.070;24.752;2022-09-09T04:02:14;11.15;;;10.15;;
10947;SDS011;5526;42.070;24.752;2022-09-09T04:04:41;10.68;;;9.77;;
10947;SDS011;5526;42.070;24.752;2022-09-09T04:07:08;10.57;;;9.77;;
10947;SDS011;5526;42.070;24.752;2022-09-09T04:09:38;10.73;;;9.68;;
10947;SDS011;5526;42.070;24.752;2022-09-09T04:12:05;11.52;;;10.35;;
10947;SDS011;5526;42.070;24.752;2022-09-09T04:14:33;11.10;;;10.30;;
10947;SDS011;5526;42.070;24.752;2022-09-09T04:17:00;12.00;;;10.93;;
10947;SDS011;5526;42.070;24.752;2022-09-09T04:19:31;12.48;;;11.48;;
10947;SDS011;5526;42.070;24.752;2022-09-09T04:21:58;12.65;;;11.38;;
10947;SDS011;5526;42.070;24.752;2022-09-09T04:24:26;12.82;;;11.57;;
10947;SDS011;5526;42.070;24.752;2022-09-09T04:26:55;12.55;;;11.55;;
10947;SDS011;5526;42.070;24.752;2022-09-09T04:29:22;13.05;;;11.80;;
10947;SDS011;5526;42.070;24.752;2022-09-09T04:31:50;13.10;;;12.15;;
10947;SDS011;5526;42.070;24.752;2022-09-09T04:34:17;12.68;;;11.68;;
10947;SDS011;5526;42.070;24.752;2022-09-09T04:36:44;12.48;;;11.50;;
10947;SDS011;5526;42.070;24.752;2022-09-09T04:39:11;13.00;;;11.65;;
10947;SDS011;5526;42.070;24.752;2022-09-09T04:41:38;12.40;;;11.30;;
10947;SDS011;5526;42.070;24.752;2022-09-09T04:44:07;12.45;;;11.18;;
10947;SDS011;5526;42.070;24.752;2022-09-09T04:46:35;12.55;;;11.45;;
10947;SDS011;5526;42.070;24.752;2022-09-09T04:49:02;12.80;;;11.73;;
10947;SDS011;5526;42.070;24.752;2022-09-09T04:51:30;11.93;;;11.00;;
10947;SDS011;5526;42.070;24.752;2022-09-09T04:53:57;12.38;;;11.38;;
10947;SDS011;5526;42.070;24.752;2022-09-09T04:56:25;12.50;;;11.40;;
10947;SDS011;5526;42.070;24.752;2022-09-09T04:58:53;13.00;;;11.05;;
10947;SDS011;5526;42.070;24.752;2022-09-09T05:01:22;11.35;;;10.45;;
10947;SDS011;5526;42.070;24.752;2022-09-09T05:03:49;13.18;;;11.75;;
10947;SDS011;5526;42.070;24.752;2022-09-09T05:06:19;12.55;;;11.65;;
10947;SDS011;5526;42.070;24.752;2022-09-09T05:08:47;13.50;;;12.18;;
10947;SDS011;5526;42.070;24.752;2022-09-09T05:11:15;13.00;;;11.90;;
10947;SDS011;5526;42.070;24.752;2022-09-09T05:13:43;12.32;;;11.05;;
10947;SDS011;5526;42.070;24.752;2022-09-09T05:16:11;11.50;;;10.55;;
10947;SDS011;5526;42.070;24.752;2022-09-09T05:18:40;11.93;;;10.93;;
10947;SDS011;5526;42.070;24.752;2022-09-09T05:21:08;14.93;;;11.18;;
10947;SDS011;5526;42.070;24.752;2022-09-09T05:23:36;14.82;;;11.25;;
10947;SDS011;5526;42.070;24.752;2022-09-09T05:26:03;11.80;;;9.45;;
10947;SDS011;5526;42.070;24.752;2022-09-09T05:28:33;12.50;;;9.30;;
10947;SDS011;5526;42.070;24.752;2022-09-09T05:31:01;9.77;;;8.88;;
10947;SDS011;5526;42.070;24.752;2022-09-09T05:33:30;9.07;;;8.18;;
10947;SDS011;5526;42.070;24.752;2022-09-09T05:36:00;9.10;;;8.20;;
10947;SDS011;5526;42.070;24.752;2022-09-09T05:38:29;9.32;;;8.52;;
10947;SDS011;5526;42.070;24.752;2022-09-09T05:40:57;11.77;;;8.70;;
10947;SDS011;5526;42.070;24.752;2022-09-09T05:43:25;9.88;;;9.13;;
10947;SDS011;5526;42.070;24.752;2022-09-09T05:46:01;10.13;;;9.32;;
10947;SDS011;5526;42.070;24.752;2022-09-09T05:48:29;10.48;;;9.68;;
10947;SDS011;5526;42.070;24.752;2022-09-09T05:50:57;11.40;;;10.32;;
10947;SDS011;5526;42.070;24.752;2022-09-09T05:53:27;10.38;;;9.18;;
10947;SDS011;5526;42.070;24.752;2022-09-09T05:56:01;10.68;;;9.93;;
10947;SDS011;5526;42.070;24.752;2022-09-09T05:58:30;10.82;;;9.80;;
10947;SDS011;5526;42.070;24.752;2022-09-09T06:01:00;9.23;;;8.45;;
10947;SDS011;5526;42.070;24.752;2022-09-09T06:03:29;9.68;;;8.88;;
10947;SDS011;5526;42.070;24.752;2022-09-09T06:05:57;10.00;;;9.30;;
10947;SDS011;5526;42.070;24.752;2022-09-09T06:08:26;9.77;;;8.75;;
10947;SDS011;5526;42.070;24.752;2022-09-09T06:11:00;10.10;;;9.18;;
10947;SDS011;5526;42.070;24.752;2022-09-09T06:13:28;9.32;;;8.52;;
10947;SDS011;5526;42.070;24.752;2022-09-09T06:15:55;11.25;;;9.02;;
10947;SDS011;5526;42.070;24.752;2022-09-09T06:18:23;8.82;;;8.13;;
10947;SDS011;5526;42.070;24.752;2022-09-09T06:20:54;9.02;;;8.07;;
10947;SDS011;5526;42.070;24.752;2022-09-09T06:23:23;9.57;;;8.68;;
10947;SDS011;5526;42.070;24.752;2022-09-09T06:25:59;9.77;;;8.77;;
10947;SDS011;5526;42.070;24.752;2022-09-09T06:28:28;8.75;;;7.95;;
10947;SDS011;5526;42.070;24.752;2022-09-09T06:30:57;8.27;;;7.68;;
10947;SDS011;5526;42.070;24.752;2022-09-09T06:33:25;8.30;;;7.60;;
10947;SDS011;5526;42.070;24.752;2022-09-09T06:35:53;9.70;;;6.70;;
10947;SDS011;5526;42.070;24.752;2022-09-09T06:38:22;6.95;;;6.38;;
10947;SDS011;5526;42.070;24.752;2022-09-09T06:40:54;6.68;;;5.93;;
10947;SDS011;5526;42.070;24.752;2022-09-09T06:43:23;7.63;;;6.32;;
10947;SDS011;5526;42.070;24.752;2022-09-09T06:45:54;7.75;;;6.18;;
10947;SDS011;5526;42.070;24.752;2022-09-09T06:48:22;8.35;;;5.97;;
10947;SDS011;5526;42.070;24.752;2022-09-09T06:50:51;7.53;;;6.20;;
10947;SDS011;5526;42.070;24.752;2022-09-09T06:53:19;7.03;;;6.43;;
10947;SDS011;5526;42.070;24.752;2022-09-09T06:55:46;7.05;;;6.43;;
10947;SDS011;5526;42.070;24.752;2022-09-09T06:58:15;6.90;;;6.10;;
10947;SDS011;5526;42.070;24.752;2022-09-09T07:00:42;6.82;;;5.57;;
10947;SDS011;5526;42.070;24.752;2022-09-09T07:03:09;8.13;;;5.32;;
10947;SDS011;5526;42.070;24.752;2022-09-09T07:05:36;6.47;;;5.82;;
10947;SDS011;5526;42.070;24.752;2022-09-09T07:08:03;7.72;;;5.70;;
10947;SDS011;5526;42.070;24.752;2022-09-09T07:10:31;8.05;;;5.90;;
10947;SDS011;5526;42.070;24.752;2022-09-09T07:12:59;5.85;;;5.28;;
10947;SDS011;5526;42.070;24.752;2022-09-09T07:15:28;6.40;;;5.40;;
10947;SDS011;5526;42.070;24.752;2022-09-09T07:17:55;7.10;;;5.60;;
10947;SDS011;5526;42.070;24.752;2022-09-09T07:20:27;6.68;;;5.72;;
10947;SDS011;5526;42.070;24.752;2022-09-09T07:22:54;7.53;;;6.07;;
10947;SDS011;5526;42.070;24.752;2022-09-09T07:25:24;7.60;;;6.20;;
10947;SDS011;5526;42.070;24.752;2022-09-09T07:27:51;6.38;;;5.75;;
10947;SDS011;5526;42.070;24.752;2022-09-09T07:30:19;6.28;;;5.78;;
10947;SDS011;5526;42.070;24.752;2022-09-09T07:32:48;6.18;;;5.55;;
10947;SDS011;5526;42.070;24.752;2022-09-09T07:35:17;7.20;;;5.97;;
10947;SDS011;5526;42.070;24.752;2022-09-09T07:37:45;6.20;;;5.80;;
10947;SDS011;5526;42.070;24.752;2022-09-09T07:40:12;5.80;;;5.30;;
10947;SDS011;5526;42.070;24.752;2022-09-09T07:42:40;6.60;;;6.00;;
10947;SDS011;5526;42.070;24.752;2022-09-09T07:45:07;6.53;;;5.88;;
10947;SDS011;5526;42.070;24.752;2022-09-09T07:47:34;6.25;;;5.65;;
10947;SDS011;5526;42.070;24.752;2022-09-09T07:50:03;6.63;;;5.75;;
10947;SDS011;5526;42.070;24.752;2022-09-09T07:52:31;7.03;;;6.43;;
10947;SDS011;5526;42.070;24.752;2022-09-09T07:55:00;7.35;;;6.63;;
10947;SDS011;5526;42.070;24.752;2022-09-09T07:57:29;6.60;;;5.95;;
10947;SDS011;5526;42.070;24.752;2022-09-09T07:59:57;6.78;;;6.10;;
10947;SDS011;5526;42.070;24.752;2022-09-09T08:02:24;6.55;;;6.05;;
10947;SDS011;5526;42.070;24.752;2022-09-09T08:04:54;6.60;;;6.00;;
10947;SDS011;5526;42.070;24.752;2022-09-09T08:07:23;6.95;;;6.35;;
10947;SDS011;5526;42.070;24.752;2022-09-09T08:09:50;6.90;;;6.20;;
10947;SDS011;5526;42.070;24.752;2022-09-09T08:12:17;6.57;;;5.95;;
10947;SDS011;5526;42.070;24.752;2022-09-09T08:14:44;6.28;;;5.78;;
10947;SDS011;5526;42.070;24.752;2022-09-09T08:17:11;6.13;;;5.60;;
10947;SDS011;5526;42.070;24.752;2022-09-09T08:19:38;6.72;;;6.10;;
10947;SDS011;5526;42.070;24.752;2022-09-09T08:22:05;7.10;;;6.40;;
10947;SDS011;5526;42.070;24.752;2022-09-09T08:24:34;6.85;;;6.22;;
10947;SDS011;5526;42.070;24.752;2022-09-09T08:27:01;6.30;;;5.82;;
10947;SDS011;5526;42.070;24.752;2022-09-09T08:29:28;6.80;;;6.20;;
10947;SDS011;5526;42.070;24.752;2022-09-09T08:31:56;6.88;;;5.97;;
10947;SDS011;5526;42.070;24.752;2022-09-09T08:34:25;6.45;;;5.95;;
10947;SDS011;5526;42.070;24.752;2022-09-09T08:36:53;6.85;;;6.15;;
10947;SDS011;5526;42.070;24.752;2022-09-09T08:39:21;6.80;;;6.10;;
10947;SDS011;5526;42.070;24.752;2022-09-09T08:41:54;8.68;;;5.72;;
10947;SDS011;5526;42.070;24.752;2022-09-09T08:44:43;7.40;;;6.75;;
10947;SDS011;5526;42.070;24.752;2022-09-09T08:47:20;6.60;;;5.97;;
10947;SDS011;5526;42.070;24.752;2022-09-09T08:49:58;7.63;;;6.93;;
10947;SDS011;5526;42.070;24.752;2022-09-09T08:52:39;6.85;;;6.30;;
10947;SDS011;5526;42.070;24.752;2022-09-09T08:55:15;7.13;;;6.45;;
10947;SDS011;5526;42.070;24.752;2022-09-09T08:57:54;9.45;;;6.90;;
10947;SDS011;5526;42.070;24.752;2022-09-09T09:00:22;7.03;;;6.43;;
10947;SDS011;5526;42.070;24.752;2022-09-09T09:03:00;7.25;;;6.70;;
10947;SDS011;5526;42.070;24.752;2022-09-09T09:05:36;12.88;;;7.35;;
10947;SDS011;5526;42.070;24.752;2022-09-09T09:08:12;7.18;;;6.68;;
10947;SDS011;5526;42.070;24.752;2022-09-09T09:10:48;7.50;;;6.80;;
10947;SDS011;5526;42.070;24.752;2022-09-09T09:13:19;10.65;;;7.22;;
10947;SDS011;5526;42.070;24.752;2022-09-09T09:15:49;8.18;;;7.18;;
10947;SDS011;5526;42.070;24.752;2022-09-09T09:18:20;7.40;;;6.80;;
10947;SDS011;5526;42.070;24.752;2022-09-09T09:20:50;10.02;;;7.38;;
10947;SDS011;5526;42.070;24.752;2022-09-09T09:23:25;6.90;;;6.28;;
10947;SDS011;5526;42.070;24.752;2022-09-09T09:25:59;7.95;;;7.20;;
10947;SDS011;5526;42.070;24.752;2022-09-09T09:28:29;7.28;;;6.57;;
10947;SDS011;5526;42.070;24.752;2022-09-09T09:30:59;10.15;;;7.20;;
10947;SDS011;5526;42.070;24.752;2022-09-09T09:33:32;7.68;;;7.05;;
10947;SDS011;5526;42.070;24.752;2022-09-09T09:36:05;8.02;;;7.28;;
10947;SDS011;5526;42.070;24.752;2022-09-09T09:38:34;10.57;;;7.40;;
10947;SDS011;5526;42.070;24.752;2022-09-09T09:41:03;8.43;;;7.63;;
10947;SDS011;5526;42.070;24.752;2022-09-09T09:43:32;8.43;;;7.72;;
10947;SDS011;5526;42.070;24.752;2022-09-09T09:46:03;7.88;;;6.85;;
10947;SDS011;5526;42.070;24.752;2022-09-09T09:48:30;8.23;;;7.40;;
10947;SDS011;5526;42.070;24.752;2022-09-09T09:50:58;7.95;;;7.15;;
10947;SDS011;5526;42.070;24.752;2022-09-09T09:53:28;8.13;;;7.15;;
10947;SDS011;5526;42.070;24.752;2022-09-09T09:55:57;7.60;;;6.90;;
10947;SDS011;5526;42.070;24.752;2022-09-09T09:58:26;8.57;;;7.80;;
10947;SDS011;5526;42.070;24.752;2022-09-09T10:01:00;8.60;;;7.75;;
10947;SDS011;5526;42.070;24.752;2022-09-09T10:03:28;9.20;;;7.70;;
10947;SDS011;5526;42.070;24.752;2022-09-09T10:06:05;7.75;;;7.25;;
10947;SDS011;5526;42.070;24.752;2022-09-09T10:08:33;10.32;;;7.65;;
10947;SDS011;5526;42.070;24.752;2022-09-09T10:14:15;8.18;;;7.47;;
10947;SDS011;5526;42.070;24.752;2022-09-09T10:17:00;7.97;;;7.38;;
10947;SDS011;5526;42.070;24.752;2022-09-09T10:19:36;8.35;;;7.68;;
10947;SDS011;5526;42.070;24.752;2022-09-09T10:22:12;8.35;;;7.40;;
10947;SDS011;5526;42.070;24.752;2022-09-09T10:28:00;8.98;;;8.10;;
10947;SDS011;5526;42.070;24.752;2022-09-09T10:30:47;8.68;;;7.93;;
10947;SDS011;5526;42.070;24.752;2022-09-09T10:33:28;9.57;;;8.60;;
10947;SDS011;5526;42.070;24.752;2022-09-09T10:36:04;9.13;;;8.23;;
10947;SDS011;5526;42.070;24.752;2022-09-09T10:38:39;11.15;;;8.45;;
10947;SDS011;5526;42.070;24.752;2022-09-09T10:41:14;9.55;;;8.65;;
10947;SDS011;5526;42.070;24.752;2022-09-09T10:43:53;9.35;;;8.65;;
10947;SDS011;5526;42.070;24.752;2022-09-09T10:46:51;9.57;;;8.70;;
10947;SDS011;5526;42.070;24.752;2022-09-09T10:49:41;10.00;;;9.27;;
10947;SDS011;5526;42.070;24.752;2022-09-09T10:52:20;9.85;;;8.88;;
10947;SDS011;5526;42.070;24.752;2022-09-09T10:54:56;8.90;;;8.10;;
10947;SDS011;5526;42.070;24.752;2022-09-09T10:57:28;9.35;;;8.15;;
10947;SDS011;5526;42.070;24.752;2022-09-09T11:00:03;9.07;;;8.18;;
10947;SDS011;5526;42.070;24.752;2022-09-09T11:02:33;9.05;;;8.18;;
10947;SDS011;5526;42.070;24.752;2022-09-09T11:05:03;10.52;;;8.35;;
10947;SDS011;5526;42.070;24.752;2022-09-09T11:07:37;9.00;;;7.80;;
10947;SDS011;5526;42.070;24.752;2022-09-09T11:10:14;8.90;;;8.25;;
10947;SDS011;5526;42.070;24.752;2022-09-09T11:12:49;9.65;;;8.70;;
10947;SDS011;5526;42.070;24.752;2022-09-09T11:15:20;8.55;;;7.95;;
10947;SDS011;5526;42.070;24.752;2022-09-09T11:17:53;9.80;;;8.80;;
10947;SDS011;5526;42.070;24.752;2022-09-09T11:20:24;8.98;;;8.18;;
10947;SDS011;5526;42.070;24.752;2022-09-09T11:22:53;8.13;;;7.35;;
10947;SDS011;5526;42.070;24.752;2022-09-09T11:25:26;8.20;;;7.53;;
10947;SDS011;5526;42.070;24.752;2022-09-09T11:28:14;8.23;;;7.68;;
10947;SDS011;5526;42.070;24.752;2022-09-09T11:31:00;7.68;;;7.07;;
10947;SDS011;5526;42.070;24.752;2022-09-09T11:33:53;8.43;;;7.60;;
10947;SDS011;5526;42.070;24.752;2022-09-09T11:36:43;8.10;;;7.43;;
10947;SDS011;5526;42.070;24.752;2022-09-09T11:39:35;7.80;;;7.20;;
10947;SDS011;5526;42.070;24.752;2022-09-09T11:42:34;8.35;;;7.45;;
10947;SDS011;5526;42.070;24.752;2022-09-09T11:45:09;7.75;;;7.25;;
10947;SDS011;5526;42.070;24.752;2022-09-09T11:47:56;7.88;;;7.07;;
10947;SDS011;5526;42.070;24.752;2022-09-09T11:50:28;7.57;;;7.00;;
10947;SDS011;5526;42.070;24.752;2022-09-09T11:55:59;7.90;;;7.40;;
10947;SDS011;5526;42.070;24.752;2022-09-09T11:58:33;7.90;;;7.30;;
10947;SDS011;5526;42.070;24.752;2022-09-09T12:04:14;8.43;;;7.07;;
10947;SDS011;5526;42.070;24.752;2022-09-09T12:06:58;7.93;;;7.22;;
10947;SDS011;5526;42.070;24.752;2022-09-09T12:09:38;7.55;;;6.95;;
10947;SDS011;5526;42.070;24.752;2022-09-09T12:12:24;8.40;;;7.55;;
10947;SDS011;5526;42.070;24.752;2022-09-09T12:14:59;7.82;;;7.32;;
10947;SDS011;5526;42.070;24.752;2022-09-09T12:17:29;7.05;;;6.55;;
10947;SDS011;5526;42.070;24.752;2022-09-09T12:20:06;7.28;;;6.65;;
10947;SDS011;5526;42.070;24.752;2022-09-09T12:22:42;8.00;;;7.28;;
10947;SDS011;5526;42.070;24.752;2022-09-09T12:25:30;7.53;;;6.93;;
10947;SDS011;5526;42.070;24.752;2022-09-09T12:28:09;7.30;;;6.70;;
10947;SDS011;5526;42.070;24.752;2022-09-09T12:30:44;7.80;;;7.03;;
10947;SDS011;5526;42.070;24.752;2022-09-09T12:33:17;7.88;;;6.93;;
10947;SDS011;5526;42.070;24.752;2022-09-09T12:35:48;7.35;;;6.82;;
10947;SDS011;5526;42.070;24.752;2022-09-09T12:38:22;7.25;;;6.65;;
10947;SDS011;5526;42.070;24.752;2022-09-09T12:40:56;8.70;;;7.93;;
10947;SDS011;5526;42.070;24.752;2022-09-09T12:43:24;8.98;;;8.10;;
10947;SDS011;5526;42.070;24.752;2022-09-09T12:45:53;7.85;;;7.15;;
10947;SDS011;5526;42.070;24.752;2022-09-09T12:48:27;7.40;;;6.80;;
10947;SDS011;5526;42.070;24.752;2022-09-09T12:50:58;7.72;;;6.70;;
10947;SDS011;5526;42.070;24.752;2022-09-09T12:53:28;8.32;;;7.68;;
10947;SDS011;5526;42.070;24.752;2022-09-09T12:56:01;7.00;;;6.47;;
10947;SDS011;5526;42.070;24.752;2022-09-09T12:58:32;7.57;;;7.00;;
10947;SDS011;5526;42.070;24.752;2022-09-09T13:01:00;7.57;;;6.97;;
10947;SDS011;5526;42.070;24.752;2022-09-09T13:03:30;8.43;;;7.45;;
10947;SDS011;5526;42.070;24.752;2022-09-09T13:05:59;7.80;;;7.20;;
10947;SDS011;5526;42.070;24.752;2022-09-09T13:08:38;8.10;;;7.47;;
10947;SDS011;5526;42.070;24.752;2022-09-09T13:11:09;8.02;;;7.22;;
10947;SDS011;5526;42.070;24.752;2022-09-09T13:13:41;7.88;;;7.05;;
10947;SDS011;5526;42.070;24.752;2022-09-09T13:16:18;7.40;;;6.80;;
10947;SDS011;5526;42.070;24.752;2022-09-09T13:18:47;7.72;;;7.03;;
10947;SDS011;5526;42.070;24.752;2022-09-09T13:21:15;7.55;;;6.95;;
10947;SDS011;5526;42.070;24.752;2022-09-09T13:23:42;8.65;;;7.25;;
10947;SDS011;5526;42.070;24.752;2022-09-09T13:26:23;7.57;;;6.97;;
10947;SDS011;5526;42.070;24.752;2022-09-09T13:28:52;12.07;;;7.80;;
10947;SDS011;5526;42.070;24.752;2022-09-09T13:31:21;7.70;;;7.00;;
10947;SDS011;5526;42.070;24.752;2022-09-09T13:33:49;8.63;;;7.82;;
10947;SDS011;5526;42.070;24.752;2022-09-09T13:36:26;8.15;;;7.53;;
10947;SDS011;5526;42.070;24.752;2022-09-09T13:38:56;7.93;;;7.32;;
10947;SDS011;5526;42.070;24.752;2022-09-09T13:41:28;8.35;;;7.68;;
10947;SDS011;5526;42.070;24.752;2022-09-09T13:43:58;9.70;;;8.55;;
10947;SDS011;5526;42.070;24.752;2022-09-09T13:46:28;9.27;;;8.52;;
10947;SDS011;5526;42.070;24.752;2022-09-09T13:49:00;10.43;;;9.43;;
10947;SDS011;5526;42.070;24.752;2022-09-09T13:51:35;9.57;;;8.60;;
10947;SDS011;5526;42.070;24.752;2022-09-09T13:54:04;9.15;;;8.30;;
10947;SDS011;5526;42.070;24.752;2022-09-09T13:56:34;10.07;;;8.63;;
10947;SDS011;5526;42.070;24.752;2022-09-09T13:59:03;9.32;;;8.45;;
10947;SDS011;5526;42.070;24.752;2022-09-09T14:01:31;12.40;;;8.45;;
10947;SDS011;5526;42.070;24.752;2022-09-09T14:04:00;9.52;;;8.50;;
10947;SDS011;5526;42.070;24.752;2022-09-09T14:06:27;9.15;;;8.35;;
10947;SDS011;5526;42.070;24.752;2022-09-09T14:08:55;8.60;;;7.90;;
10947;SDS011;5526;42.070;24.752;2022-09-09T14:11:22;8.90;;;8.10;;
10947;SDS011;5526;42.070;24.752;2022-09-09T14:13:51;9.50;;;8.63;;
10947;SDS011;5526;42.070;24.752;2022-09-09T14:16:18;10.07;;;8.95;;
10947;SDS011;5526;42.070;24.752;2022-09-09T14:18:46;9.63;;;8.80;;
10947;SDS011;5526;42.070;24.752;2022-09-09T14:21:14;9.52;;;8.73;;
10947;SDS011;5526;42.070;24.752;2022-09-09T14:23:41;9.93;;;9.13;;
10947;SDS011;5526;42.070;24.752;2022-09-09T14:26:08;9.45;;;8.63;;
10947;SDS011;5526;42.070;24.752;2022-09-09T14:28:36;22.30;;;9.77;;
10947;SDS011;5526;42.070;24.752;2022-09-09T14:31:05;15.30;;;8.88;;
10947;SDS011;5526;42.070;24.752;2022-09-09T14:33:33;9.43;;;8.63;;
10947;SDS011;5526;42.070;24.752;2022-09-09T14:36:02;10.13;;;8.98;;
10947;SDS011;5526;42.070;24.752;2022-09-09T14:38:30;11.23;;;8.82;;
10947;SDS011;5526;42.070;24.752;2022-09-09T14:40:59;27.17;;;9.23;;
10947;SDS011;5526;42.070;24.752;2022-09-09T14:43:28;9.93;;;8.38;;
10947;SDS011;5526;42.070;24.752;2022-09-09T14:45:57;9.65;;;8.75;;
10947;SDS011;5526;42.070;24.752;2022-09-09T14:48:32;9.48;;;8.68;;
10947;SDS011;5526;42.070;24.752;2022-09-09T14:51:04;9.45;;;8.65;;
10947;SDS011;5526;42.070;24.752;2022-09-09T14:53:33;9.30;;;8.30;;
10947;SDS011;5526;42.070;24.752;2022-09-09T14:56:06;12.13;;;8.40;;
10947;SDS011;5526;42.070;24.752;2022-09-09T14:58:35;9.43;;;8.10;;
10947;SDS011;5526;42.070;24.752;2022-09-09T15:01:03;9.43;;;8.48;;
10947;SDS011;5526;42.070;24.752;2022-09-09T15:03:33;9.23;;;8.18;;
10947;SDS011;5526;42.070;24.752;2022-09-09T15:06:04;8.85;;;8.00;;
10947;SDS011;5526;42.070;24.752;2022-09-09T15:08:34;9.50;;;8.57;;
10947;SDS011;5526;42.070;24.752;2022-09-09T15:11:01;11.13;;;8.35;;
10947;SDS011;5526;42.070;24.752;2022-09-09T15:13:30;9.40;;;8.40;;
10947;SDS011;5526;42.070;24.752;2022-09-09T15:16:03;9.00;;;8.30;;
10947;SDS011;5526;42.070;24.752;2022-09-09T15:18:32;10.10;;;8.18;;
10947;SDS011;5526;42.070;24.752;2022-09-09T15:21:01;9.27;;;8.32;;